• Join FlightAware (Why Join?)
  • Login
  • US Flag 
11:06PM EST


 

Airport Tracker/Info


-or-


 

Live Flight TrackerFlight Track Log ✈ AWE1940 ✈ 14-Aug-2013 ✈ KCLT - KALB

Flight Track Log - Related Links

Times and Time Zones

All times are in EDT time to prevent confusion due to time zone crossing. See the AWE1940 flight status page for this flight to view local times or setup timezone preferences in your user account.

Time Position Orientation Groundspeed Altitude Reporting Facility
EDT Latitude Longitude Course Direction KTS MPH feet Rate Location/Type
10:32PM 35.8423 -80.4211 34° Northeast  Level Estimated
10:33PM 35.9319 -80.3450 35° Northeast  Level Estimated
10:34PM 36.0215 -80.2688 35° Northeast  Level Estimated
10:35PM 36.1110 -80.1923 35° Northeast  Level Estimated
10:36PM 36.2005 -80.1157 35° Northeast  Level Estimated
10:37PM 36.2899 -80.0389 35° Northeast  Level Estimated
10:38PM 36.3792 -79.9619 35° Northeast  Level Estimated
10:39PM 36.4685 -79.8848 35° Northeast  Level Estimated
10:40PM 36.5578 -79.8074 35° Northeast  Level Estimated
10:41PM 36.6470 -79.7299 35° Northeast  Level Estimated
10:42PM 36.7362 -79.6522 35° Northeast  Level Estimated
10:43PM 36.8253 -79.5744 35° Northeast  Level Estimated
10:44PM 36.9143 -79.4963 35° Northeast  Level Estimated
10:45PM 37.0033 -79.4181 35° Northeast  Level Estimated
10:46PM 37.0923 -79.3397 35° Northeast  Level Estimated
10:47PM 37.1812 -79.2611 35° Northeast  Level Estimated
10:48PM 37.2701 -79.1823 35° Northeast  Level Estimated
10:49PM 37.3589 -79.1033 35° Northeast  Level Estimated
10:50PM 37.4476 -79.0241 35° Northeast  Level Estimated
10:51PM 37.5363 -78.9448 35° Northeast  Level Estimated
10:52PM 37.6250 -78.8653 35° Northeast  Level Estimated
10:53PM 37.7136 -78.7856 35° Northeast  Level Estimated
10:54PM 37.8021 -78.7056 35° Northeast  Level Estimated
10:55PM 37.8906 -78.6255 36° Northeast  Level Estimated
10:56PM 37.9790 -78.5452 36° Northeast  Level Estimated
10:57PM 38.0674 -78.4647 36° Northeast  Level Estimated
10:58PM 38.1557 -78.3840 36° Northeast  Level Estimated
10:59PM 38.2439 -78.3032 36° Northeast  Level Estimated
11:00PM 38.3322 -78.2221 36° Northeast  Level Estimated
11:01PM 38.4203 -78.1408 36° Northeast  Level Estimated
11:02PM 38.5084 -78.0593 36° Northeast  Level Estimated
11:03PM 38.5965 -77.9776 36° Northeast  Level Estimated
11:04PM 38.6844 -77.8958 36° Northeast  Level Estimated
11:05PM 38.7724 -77.8137 36° Northeast  Level Estimated
11:06PM 38.8602 -77.7314 36° Northeast  Level Estimated
11:07PM 38.9480 -77.6489 36° Northeast  Level Estimated
11:08PM 39.0358 -77.5662 36° Northeast  Level Estimated
11:09PM 39.1235 -77.4833 36° Northeast  Level Estimated
11:10PM 39.2111 -77.4002 36° Northeast  Level Estimated
11:11PM 39.2987 -77.3169 36° Northeast  Level Estimated
11:12PM 39.3862 -77.2334 36° Northeast  Level Estimated
11:13PM 39.4736 -77.1497 36° Northeast  Level Estimated
11:14PM 39.5610 -77.0657 37° Northeast  Level Estimated
11:15PM 39.6484 -76.9816 37° Northeast  Level Estimated
11:16PM 39.7356 -76.8972 37° Northeast  Level Estimated
11:17PM 39.8228 -76.8127 37° Northeast  Level Estimated
11:18PM 39.9100 -76.7279 37° Northeast  Level Estimated
11:19PM 39.9971 -76.6429 37° Northeast  Level Estimated
11:20PM 40.0841 -76.5576 37° Northeast  Level Estimated
11:21PM 40.1711 -76.4722 37° Northeast  Level Estimated
11:22PM 40.2580 -76.3865 37° Northeast  Level Estimated
11:23PM 40.3448 -76.3007 37° Northeast  Level Estimated
11:24PM 40.4316 -76.2145 37° Northeast  Level Estimated
11:25PM 40.5183 -76.1282 37° Northeast  Level Estimated
11:26PM 40.6049 -76.0417 37° Northeast  Level Estimated
11:27PM 40.6915 -75.9549 37° Northeast  Level Estimated
11:28PM 40.7780 -75.8679 37° Northeast  Level Estimated
11:29PM 40.8645 -75.7807 37° Northeast  Level Estimated
11:30PM 40.9509 -75.6932 37° Northeast  Level Estimated
11:31PM 41.0372 -75.6056 37° Northeast  Level Estimated
11:32PM 41.1234 -75.5176 38° Northeast  Level Estimated
11:33PM 41.2096 -75.4295 38° Northeast  Level Estimated
11:34PM 41.2957 -75.3411 38° Northeast  Level Estimated
11:35PM 41.3818 -75.2525 38° Northeast  Level Estimated
11:36PM 41.4678 -75.1637 38° Northeast  Level Estimated
11:37PM 41.5537 -75.0746 38° Northeast  Level Estimated
11:38PM 41.6395 -74.9853 38° Northeast  Level Estimated
11:39PM 41.7253 -74.8957 38° Northeast  Level Estimated
11:40PM 41.8110 -74.8059 38° Northeast  Level Estimated
11:41PM 41.8966 -74.7159 38° Northeast  Level Estimated
11:42PM 41.9822 -74.6256 38° Northeast  Level Estimated
11:43PM 42.0677 -74.5351 38° Northeast  Level Estimated
11:44PM 42.1467 -74.4512 38° Northeast  Level Estimated
11:45PM 42.2256 -74.3671 38° Northeast  Level Estimated
11:46PM 42.3045 -74.2827 38° Northeast  Level Estimated
11:47PM 42.3833 -74.1982 38° Northeast  Level Estimated
11:48PM 42.4620 -74.1134 38° Northeast  Level Estimated
11:49PM 42.5407 -74.0284 38° Northeast  Level Estimated
11:50PM 42.6193 -73.9432 39° Northeast  Level Estimated
11:51PM 42.6979 -73.8578 39° Northeast  Level Estimated
11:52PM 42.7491 -73.8020 39° Northeast  Level Estimated
11:53PM 42.7491 -73.8020 304° West  Level Estimated